Terminal Aerodrome Forecast
Issued by NWS Cleveland, OH

Home | Current Version | Previous Version | Text Only | Print | Product List | Glossary On
Versions: 1 2 3 4 5 6 7 8 9 10 11 12 13 14 15 16 17 18 19 20 21 22
000
FTUS41 KCLE 012300
TAFYNG
TAF
KYNG 012331Z 0200/0224 VRB03KT P6SM FEW035
     FM020400 12003KT 4SM BR FEW250
      TEMPO 0206/0210 1SM BR SCT002
     FM021400 17006KT P6SM FEW100 SCT250
     FM022300 13005KT P6SM BKN150=

USA.gov is the U.S. government's official web portal to all federal, state and local government web resources and services.